Time;durP1;ratioP1;P1;durP2;ratioP2;P2;SDS_P1;SDS_P2;PMS_P1;PMS_P2;Temp;Humidity;BMP_temperature;BMP_pressure;BME280_temperature;BME280_humidity;BME280_pressure;Samples;Min_cycle;Max_cycle;Signal;HPM_P1;HPM_P2
2022/10/20 00:01:48;;;;;;;12.90;9.75;;;;;;;6.83;71.05;101019.97;10462698;28;20064;-78
2022/10/20 00:06:56;;;;;;;14.93;10.10;;;;;;;6.81;71.20;101018.31;10462633;28;20155;-78
2022/10/20 00:12:00;;;;;;;11.63;9.55;;;;;;;6.80;71.14;101012.13;10462315;28;20172;-78
2022/10/20 00:17:04;;;;;;;17.67;10.93;;;;;;;6.84;70.85;101010.16;10462361;28;20041;-78
2022/10/20 00:22:07;;;;;;;17.77;11.30;;;;;;;6.81;70.64;101000.50;10456316;28;20041;-78
2022/10/20 00:27:11;;;;;;;;;;;;;;;6.77;70.89;101012.28;10444340;28;20048;-78
2022/10/20 00:32:14;;;;;;;16.10;12.23;;;;;;;6.77;70.86;100995.41;10459586;28;19956;-78
2022/10/20 00:37:16;;;;;;;;;;;;;;;6.74;70.73;100982.22;10460860;28;20470;-78
2022/10/20 00:42:20;;;;;;;19.88;12.07;;;;;;;6.53;71.30;100984.28;10460457;28;19980;-78
2022/10/20 00:47:34;;;;;;;22.02;11.38;;;;;;;6.65;71.15;100988.09;10451300;28;20041;-78
2022/10/20 00:52:38;;;;;;;18.77;12.25;;;;;;;6.63;71.27;100974.81;10459294;28;20051;-78
2022/10/20 00:57:46;;;;;;;21.58;14.05;;;;;;;6.69;71.14;100976.28;10460100;28;20105;-78
2022/10/20 01:02:50;;;;;;;20.92;13.85;;;;;;;6.66;71.19;100966.63;10458819;28;20114;-78
2022/10/20 01:07:52;;;;;;;17.52;12.95;;;;;;;6.57;71.52;100948.44;10459175;28;20105;-78
2022/10/20 01:13:02;;;;;;;19.27;14.65;;;;;;;6.51;71.47;100948.81;10480329;28;20061;-78
2022/10/20 01:18:16;;;;;;;21.63;15.68;;;;;;;6.67;71.20;100940.81;10481257;28;20045;-79
2022/10/20 01:23:43;;;;;;;21.40;15.35;;;;;;;6.66;71.02;100934.59;10464727;28;20084;-79
2022/10/20 01:28:54;;;;;;;25.30;13.85;;;;;;;6.61;71.02;100926.84;10455229;28;20073;-78
2022/10/20 01:34:06;;;;;;;21.55;13.38;;;;;;;6.55;71.45;100910.28;10456512;28;20124;-78
2022/10/20 01:39:16;;;;;;;20.20;13.75;;;;;;;6.56;71.52;100893.34;10452894;28;20486;-78
2022/10/20 01:44:24;;;;;;;19.92;13.60;;;;;;;6.57;71.44;100897.72;10473163;28;20088;-78
2022/10/20 01:49:27;;;;;;;21.55;14.35;;;;;;;6.46;71.38;100895.66;10479150;28;20045;-78
2022/10/20 01:54:31;;;;;;;22.15;14.73;;;;;;;6.43;71.47;100876.31;10477996;28;20052;-78
2022/10/20 01:59:46;;;;;;;20.23;13.13;;;;;;;6.51;71.44;100866.06;10491398;28;20052;-78
2022/10/20 02:05:20;;;;;;;23.05;13.43;;;;;;;6.48;71.79;100858.22;10489373;28;20052;-79
2022/10/20 02:10:27;;;;;;;20.50;13.80;;;;;;;6.57;71.38;100847.00;10421985;28;20067;-79
2022/10/20 02:15:36;;;;;;;19.77;13.57;;;;;;;6.65;71.03;100843.91;10461636;28;20160;-79
2022/10/20 02:20:42;;;;;;;18.65;13.75;;;;;;;6.61;71.09;100837.91;10485358;28;20081;-79
2022/10/20 02:25:48;;;;;;;19.75;13.77;;;;;;;6.71;70.77;100840.88;10479896;28;20059;-79
2022/10/20 02:30:52;;;;;;;18.38;13.30;;;;;;;6.61;71.22;100837.91;10461684;28;20179;-80
2022/10/20 02:35:57;;;;;;;16.52;14.07;;;;;;;6.60;71.27;100830.81;10460008;28;20041;-79
2022/10/20 02:41:00;;;;;;;20.17;13.57;;;;;;;6.62;70.92;100845.81;10459177;28;20084;-79
2022/10/20 02:46:04;;;;;;;21.10;13.57;;;;;;;6.62;71.01;100832.47;10459243;28;20045;-79
2022/10/20 02:51:07;;;;;;;16.58;13.85;;;;;;;6.53;71.00;100824.13;10441012;28;20052;-79
2022/10/20 02:56:11;;;;;;;18.83;13.07;;;;;;;6.69;70.95;100822.31;10458657;28;20510;-78
2022/10/20 03:01:15;;;;;;;19.88;12.98;;;;;;;6.63;71.06;100830.66;10459182;28;20462;-79
2022/10/20 03:06:18;;;;;;;18.92;13.23;;;;;;;6.62;71.03;100831.59;10476618;23;20406;-79
2022/10/20 03:11:20;;;;;;;;;;;;;;;6.57;71.38;100823.00;10448082;28;20112;-78
2022/10/20 03:16:24;;;;;;;15.32;12.05;;;;;;;6.59;71.51;100808.59;10442661;28;19921;-78
2022/10/20 03:21:27;;;;;;;18.75;12.30;;;;;;;6.52;71.75;100798.38;10476814;28;20204;-78
2022/10/20 03:26:30;;;;;;;19.42;12.32;;;;;;;6.58;71.29;100795.34;10435171;28;20049;-80
2022/10/20 03:31:34;;;;;;;15.10;11.90;;;;;;;6.50;71.83;100781.56;10430408;28;20041;-80
2022/10/20 03:36:37;;;;;;;19.55;12.80;;;;;;;6.45;71.77;100765.00;10434851;28;20049;-80
2022/10/20 03:41:40;;;;;;;19.58;12.77;;;;;;;6.40;72.03;100749.25;10478239;28;20048;-77
2022/10/20 03:46:44;;;;;;;17.88;13.20;;;;;;;6.25;72.99;100740.28;10459889;28;20049;-79
2022/10/20 03:51:47;;;;;;;17.50;11.18;;;;;;;6.37;72.49;100758.28;10446220;28;20485;-80
2022/10/20 03:56:49;;;;;;;;;;;;;;;6.38;72.47;100743.13;10446664;28;20069;-78
2022/10/20 04:01:54;;;;;;;16.88;11.85;;;;;;;6.32;72.75;100748.81;10439905;28;19925;-78
2022/10/20 04:06:56;;;;;;;19.27;12.48;;;;;;;6.27;72.77;100745.56;10425615;28;20061;-80
2022/10/20 04:11:59;;;;;;;16.55;11.80;;;;;;;6.26;73.23;100746.50;10426496;28;20150;-80
2022/10/20 04:17:03;;;;;;;17.05;12.32;;;;;;;6.45;72.49;100739.16;10432172;28;20076;-79
2022/10/20 04:22:07;;;;;;;19.83;11.05;;;;;;;6.27;72.98;100709.06;10444239;28;20045;-79
2022/10/20 04:27:10;;;;;;;18.38;12.13;;;;;;;6.40;72.66;100711.88;10454775;28;20068;-79
2022/10/20 04:32:14;;;;;;;15.80;11.88;;;;;;;6.39;72.66;100715.50;10459080;28;20049;-81
2022/10/20 04:37:16;;;;;;;15.68;10.32;;;;;;;6.38;72.71;100719.97;10439612;28;20085;-80
2022/10/20 04:42:20;;;;;;;16.15;11.68;;;;;;;6.42;72.62;100715.31;10452762;28;20068;-80
2022/10/20 04:47:24;;;;;;;18.45;11.73;;;;;;;6.36;72.85;100704.97;10459370;28;20052;-79
2022/10/20 04:52:28;;;;;;;15.23;11.40;;;;;;;6.34;72.81;100691.75;10421133;28;20096;-78
2022/10/20 04:57:31;;;;;;;16.38;11.70;;;;;;;6.31;72.88;100683.06;10440791;28;20041;-77
2022/10/20 05:02:35;;;;;;;17.20;10.52;;;;;;;6.46;72.68;100659.94;10452793;28;20200;-77
2022/10/20 05:07:38;;;;;;;16.98;11.00;;;;;;;6.28;73.04;100654.75;10462254;28;20060;-80
2022/10/20 05:12:41;;;;;;;17.63;10.88;;;;;;;6.50;72.28;100643.69;10448102;28;20537;-81
2022/10/20 05:17:46;;;;;;;19.75;10.68;;;;;;;6.46;72.19;100633.25;10444437;28;20456;-81
2022/10/20 05:22:48;;;;;;;13.88;9.32;;;;;;;6.47;72.10;100632.31;10451890;28;20143;-79
2022/10/20 05:27:51;;;;;;;15.15;10.77;;;;;;;6.49;71.81;100625.06;10456223;28;20433;-80
2022/10/20 05:32:55;;;;;;;13.63;10.52;;;;;;;6.39;72.24;100622.13;10459955;28;20052;-78
2022/10/20 05:37:58;;;;;;;17.85;10.13;;;;;;;6.42;72.18;100629.03;10456883;28;20049;-78
2022/10/20 05:43:01;;;;;;;16.80;10.48;;;;;;;6.37;72.17;100621.34;10451477;28;20454;-79
2022/10/20 05:48:06;;;;;;;15.77;10.13;;;;;;;6.51;71.42;100618.69;10431763;28;20040;-79
2022/10/20 05:53:08;;;;;;;17.92;10.18;;;;;;;6.37;71.99;100616.00;10442358;28;20148;-78
2022/10/20 05:58:11;;;;;;;15.50;9.30;;;;;;;6.36;72.07;100612.47;10439123;28;20124;-80
2022/10/20 06:03:15;;;;;;;22.50;10.93;;;;;;;6.35;72.19;100594.72;10447946;28;20132;-80
2022/10/20 06:08:20;;;;;;;16.60;11.18;;;;;;;6.21;72.64;100583.19;10451840;28;20041;-81
2022/10/20 06:13:23;;;;;;;11.80;9.48;;;;;;;6.25;72.42;100574.03;10439575;28;20139;-79
2022/10/20 06:18:27;;;;;;;17.92;10.55;;;;;;;6.38;72.13;100569.69;10441645;28;20477;-79
2022/10/20 06:23:30;;;;;;;13.77;9.05;;;;;;;6.39;71.98;100566.06;10451899;28;20073;-81
2022/10/20 06:28:34;;;;;;;14.82;10.30;;;;;;;6.46;71.87;100563.88;10455439;28;20075;-80
2022/10/20 06:33:38;;;;;;;18.30;11.60;;;;;;;6.44;72.00;100555.94;10456460;28;20124;-80
2022/10/20 06:38:52;;;;;;;14.77;10.43;;;;;;;6.66;72.47;100560.84;10457405;28;20112;-81
2022/10/20 06:43:58;;;;;;;11.30;9.25;;;;;;;6.97;70.59;100565.16;10448993;28;20064;-80
2022/10/20 06:49:03;;;;;;;13.70;8.20;;;;;;;7.14;69.88;100548.06;10425514;28;21607;-79
2022/10/20 06:54:06;;;;;;;11.70;7.32;;;;;;;7.35;69.41;100545.81;10406136;28;20053;-79
2022/10/20 06:59:09;;;;;;;12.10;7.82;;;;;;;7.34;68.70;100540.56;10404466;28;20077;-81
2022/10/20 07:04:15;;;;;;;11.80;7.45;;;;;;;7.65;67.97;100548.31;10413791;28;20069;-81
2022/10/20 07:09:19;;;;;;;9.30;7.75;;;;;;;7.59;67.44;100537.13;10418601;28;20410;-79
2022/10/20 07:14:22;;;;;;;12.88;8.75;;;;;;;7.85;67.14;100541.63;10418825;28;20040;-81
2022/10/20 07:19:27;;;;;;;12.00;8.85;;;;;;;7.72;67.01;100533.53;10419839;28;21219;-80
2022/10/20 07:24:29;;;;;;;12.43;7.75;;;;;;;7.99;67.00;100545.19;10434214;28;20742;-80
2022/10/20 07:29:32;;;;;;;;;;;;;;;8.30;66.13;100538.59;10421037;28;20051;-81
2022/10/20 07:34:41;;;;;;;10.93;7.63;;;;;;;8.40;65.41;100527.13;10404320;28;19955;-81
2022/10/20 07:39:44;;;;;;;9.77;8.60;;;;;;;8.97;64.13;100523.16;10423343;28;20055;-78
2022/10/20 07:44:47;;;;;;;;;;;;;;;8.90;64.19;100516.50;10429494;28;20053;-81
2022/10/20 07:49:51;;;;;;;9.98;8.20;;;;;;;8.74;64.86;100521.25;10415105;28;19924;-79
2022/10/20 07:54:53;;;;;;;13.18;9.75;;;;;;;8.42;66.03;100529.72;10409116;28;20037;-77
2022/10/20 08:00:16;;;;;;;15.23;9.05;;;;;;;8.72;65.90;100525.84;10434472;28;20052;-78
2022/10/20 08:05:21;;;;;;;12.77;8.95;;;;;;;8.61;66.12;100515.91;10411554;28;21167;-80
2022/10/20 08:10:23;;;;;;;12.18;9.55;;;;;;;8.82;66.16;100510.84;10417572;28;20575;-80
2022/10/20 08:15:26;;;;;;;14.13;9.55;;;;;;;8.90;65.98;100500.44;10418271;28;20045;-78
2022/10/20 08:20:31;;;;;;;13.38;8.75;;;;;;;8.78;66.40;100510.22;10412005;28;20768;-78
2022/10/20 08:25:42;;;;;;;12.90;9.02;;;;;;;9.07;66.24;100491.16;10425491;28;20148;-80
2022/10/20 08:30:45;;;;;;;16.30;9.85;;;;;;;9.33;65.84;100485.72;10434219;28;20172;-78
2022/10/20 08:35:49;;;;;;;;;;;;;;;9.32;65.90;100490.22;10426914;28;20041;-79
2022/10/20 08:40:52;;;;;;;12.48;8.93;;;;;;;9.36;66.36;100483.66;10412431;28;19980;-79
2022/10/20 08:45:55;;;;;;;16.48;9.68;;;;;;;9.84;65.69;100488.13;10408506;28;20056;-80
2022/10/20 08:50:59;;;;;;;15.98;10.32;;;;;;;9.81;65.87;100478.47;10410588;28;20045;-80
2022/10/20 08:56:02;;;;;;;12.77;9.95;;;;;;;10.02;64.98;100484.06;10398848;28;20063;-80
2022/10/20 09:01:13;;;;;;;;;;;;;;;10.46;63.55;100476.19;10384193;28;20075;-81
2022/10/20 09:06:18;;;;;;;15.23;10.27;;;;;;;10.79;63.41;100460.06;10432393;28;20534;-78
2022/10/20 09:11:24;;;;;;;12.07;8.82;;;;;;;11.06;62.86;100440.00;10454756;28;20049;-79
2022/10/20 09:16:29;;;;;;;14.40;9.80;;;;;;;11.38;62.01;100445.44;10414167;28;20061;-80
2022/10/20 09:21:49;;;;;;;15.05;9.05;;;;;;;11.89;60.72;100441.97;10406145;28;20060;-79
2022/10/20 09:26:52;;;;;;;10.55;9.10;;;;;;;11.50;61.08;100422.88;10379666;28;20048;-80
2022/10/20 09:32:01;;;;;;;13.25;8.98;;;;;;;11.65;61.36;100417.16;10385435;28;20123;-80
2022/10/20 09:37:25;;;;;;;;;;;;;;;11.76;61.16;100413.56;10415510;28;20055;-78
2022/10/20 09:42:31;;;;;;;17.67;9.77;;;;;;;11.50;61.55;100408.56;10410903;28;19925;-77
2022/10/20 09:47:35;;;;;;;12.52;8.82;;;;;;;12.09;60.41;100420.56;10424448;28;20041;-80
2022/10/20 09:52:46;;;;;;;13.65;9.82;;;;;;;12.15;60.21;100387.72;10419602;28;20049;-80
2022/10/20 09:57:49;;;;;;;13.70;9.15;;;;;;;12.59;59.19;100364.94;10414788;28;20049;-79
2022/10/20 10:03:08;;;;;;;11.25;8.85;;;;;;;13.43;57.12;100342.03;10381245;28;20049;-80
2022/10/20 10:08:15;;;;;;;14.70;8.55;;;;;;;13.12;57.15;100371.00;10400070;28;20053;-79
2022/10/20 10:13:24;;;;;;;12.88;9.23;;;;;;;13.18;57.78;100392.84;10405065;28;20049;-79
2022/10/20 10:18:28;;;;;;;15.60;8.93;;;;;;;13.30;57.66;100363.03;10405317;28;20045;-79
2022/10/20 10:23:35;;;;;;;11.25;8.77;;;;;;;14.26;55.77;100383.63;10383928;28;20049;-78
2022/10/20 10:28:40;;;;;;;13.60;8.18;;;;;;;15.56;53.10;100380.66;10405308;28;21350;-80
2022/10/20 10:33:43;;;;;;;9.52;6.97;;;;;;;15.73;51.39;100365.38;10424198;28;20171;-82
2022/10/20 10:38:47;;;;;;;10.95;7.40;;;;;;;15.39;52.22;100349.06;10424777;28;20049;-80
2022/10/20 10:43:59;;;;;;;9.23;7.63;;;;;;;16.43;50.29;100353.59;10406344;28;20046;-81
2022/10/20 10:49:19;;;;;;;8.13;6.97;;;;;;;17.46;46.79;100346.03;10412499;28;20092;-79
2022/10/20 10:54:44;;;;;;;10.98;7.05;;;;;;;17.17;47.82;100333.81;10409986;28;20137;-82
2022/10/20 10:59:51;;;;;;;9.40;6.63;;;;;;;17.45;47.74;100319.91;10418498;28;20050;-80
2022/10/20 11:05:27;;;;;;;8.90;7.10;;;;;;;15.94;50.81;100297.31;10423617;28;20044;-78
2022/10/20 11:10:42;;;;;;;9.88;7.28;;;;;;;15.05;53.79;100310.00;10433442;28;20103;-80
2022/10/20 11:16:00;;;;;;;7.85;6.53;;;;;;;14.78;54.96;100292.03;10418363;28;20128;-79
2022/10/20 11:26:46;;;;;;;8.32;7.45;;;;;;;14.95;55.20;100294.88;10392791;28;20599;-80
2022/10/20 11:31:53;;;;;;;11.48;7.35;;;;;;;14.91;55.53;100293.47;10410858;28;20060;-81
2022/10/20 11:37:02;;;;;;;7.90;7.10;;;;;;;15.20;54.74;100285.97;10415443;28;20077;-82
2022/10/20 11:42:21;;;;;;;11.18;6.43;;;;;;;15.51;53.79;100279.28;10391984;28;20067;-81
2022/10/20 11:47:31;;;;;;;9.43;6.97;;;;;;;15.50;54.11;100264.06;10432330;28;20128;-79
2022/10/20 11:52:59;;;;;;;9.32;7.00;;;;;;;15.26;54.11;100270.94;10416818;28;20049;-79
2022/10/20 11:58:20;;;;;;;9.15;7.30;;;;;;;15.10;54.52;100251.88;10408432;28;20123;-78
2022/10/20 12:03:44;;;;;;;9.50;5.70;;;;;;;15.25;54.34;100245.75;10415570;28;20041;-80
2022/10/20 12:09:12;;;;;;;8.90;6.93;;;;;;;15.86;53.22;100248.50;10415521;28;20056;-80
2022/10/20 12:14:23;;;;;;;8.65;7.18;;;;;;;16.01;52.54;100248.72;10413676;28;20092;-80
2022/10/20 12:19:28;;;;;;;10.90;7.15;;;;;;;15.35;54.06;100239.41;10394398;28;20053;-78
2022/10/20 12:24:34;;;;;;;9.57;7.25;;;;;;;14.76;56.05;100239.94;10404734;28;20041;-80
2022/10/20 12:29:57;;;;;;;9.82;7.50;;;;;;;15.03;55.75;100211.94;10412341;28;20083;-80
2022/10/20 12:35:02;;;;;;;10.38;7.25;;;;;;;14.74;55.92;100236.53;10416709;28;20055;-79
2022/10/20 12:40:24;;;;;;;10.95;6.60;;;;;;;15.07;54.97;100236.81;10402575;28;20041;-79
2022/10/20 12:45:37;;;;;;;9.75;6.50;;;;;;;14.86;55.73;100228.19;10407544;28;20053;-81
2022/10/20 12:50:41;;;;;;;;;;;;;;;14.63;56.38;100236.78;10407827;28;20246;-81
2022/10/20 12:55:46;;;;;;;8.55;7.63;;;;;;;14.41;56.80;100224.56;10402403;28;20062;-80
2022/10/20 13:01:11;;;;;;;8.60;7.15;;;;;;;13.89;59.20;100214.31;10382597;28;20418;-78
2022/10/20 13:06:39;;;;;;;12.30;8.32;;;;;;;13.78;59.85;100202.88;10402303;28;20057;-80
2022/10/20 13:11:52;;;;;;;10.00;7.40;;;;;;;13.83;59.72;100204.13;10402812;28;20085;-81
2022/10/20 13:17:05;;;;;;;8.77;7.88;;;;;;;13.74;61.08;100206.84;10381873;28;20107;-80
2022/10/20 13:22:34;;;;;;;11.95;8.05;;;;;;;13.89;61.94;100194.56;10418629;28;20045;-80
2022/10/20 13:27:37;;;;;;;13.32;8.60;;;;;;;13.61;65.13;100189.16;10382178;28;20091;-81
2022/10/20 13:32:51;;;;;;;14.27;9.60;;;;;;;13.23;66.50;100193.66;10408928;28;20045;-79
2022/10/20 13:38:20;;;;;;;16.50;9.30;;;;;;;13.10;66.74;100213.88;10398706;28;20080;-78
2022/10/20 13:43:31;;;;;;;14.88;8.05;;;;;;;12.93;65.95;100235.16;10401495;28;20055;-78
2022/10/20 13:48:54;;;;;;;12.10;8.90;;;;;;;13.10;65.88;100249.75;10404487;28;20041;-79
2022/10/20 13:54:00;;;;;;;13.18;9.73;;;;;;;13.18;66.10;100246.34;10411292;28;20059;-82
2022/10/20 13:59:07;;;;;;;12.18;9.52;;;;;;;13.35;65.24;100245.59;10417632;28;20680;-80
2022/10/20 14:04:25;;;;;;;13.40;9.05;;;;;;;13.44;64.54;100257.41;10422930;28;20056;-81
2022/10/20 14:09:27;;;;;;;12.13;9.07;;;;;;;13.47;64.39;100247.16;10390944;28;20587;-80
2022/10/20 14:14:30;;;;;;;;;;;;;;;13.53;64.97;100232.25;10393397;28;20049;-80
2022/10/20 14:19:35;;;;;;;;;;;;;;;13.54;64.69;100239.31;10405454;28;19925;-80
2022/10/20 14:24:42;;;;;;;13.80;8.85;;;;;;;13.51;65.30;100242.31;10403472;28;19925;-80
2022/10/20 14:29:46;;;;;;;13.27;8.70;;;;;;;13.52;65.46;100238.66;10401255;28;21526;-81
2022/10/20 14:34:58;;;;;;;14.40;7.35;;;;;;;13.33;65.64;100233.25;10409485;28;20116;-79
2022/10/20 14:40:02;;;;;;;;;;;;;;;13.49;65.81;100231.69;10414778;28;20068;-78
2022/10/20 14:45:06;;;;;;;11.85;8.20;;;;;;;13.39;66.57;100220.06;10394544;28;21018;-81
2022/10/20 14:50:20;;;;;;;12.77;9.30;;;;;;;13.29;67.08;100224.59;10389304;28;20513;-80
2022/10/20 14:55:30;;;;;;;16.33;9.35;;;;;;;13.10;67.90;100214.72;10388258;28;20048;-81
2022/10/20 15:00:35;;;;;;;14.70;9.57;;;;;;;12.76;69.36;100207.09;10378243;28;20461;-80
2022/10/20 15:05:43;;;;;;;16.30;11.05;;;;;;;12.60;73.42;100207.66;10391557;28;20068;-80
2022/10/20 15:10:46;;;;;;;12.88;10.32;;;;;;;12.25;75.11;100191.16;10403096;28;20054;-81
2022/10/20 15:15:49;;;;;;;19.52;11.35;;;;;;;11.79;79.71;100185.38;10409835;28;20049;-79
2022/10/20 15:20:55;;;;;;;20.23;12.77;;;;;;;11.42;83.85;100185.97;10420969;28;20094;-80
2022/10/20 15:26:01;;;;;;;18.70;13.88;;;;;;;11.39;83.96;100174.66;10417463;28;20137;-80
2022/10/20 15:31:07;;;;;;;18.42;12.18;;;;;;;11.38;84.22;100191.75;10398785;28;20710;-78
2022/10/20 15:36:14;;;;;;;20.00;13.38;;;;;;;11.44;84.79;100199.31;10401284;28;20053;-80
2022/10/20 15:41:18;;;;;;;19.30;12.65;;;;;;;11.46;84.85;100182.03;10394159;28;20126;-80
2022/10/20 15:46:22;;;;;;;23.10;14.88;;;;;;;11.57;85.32;100182.91;10408744;28;21154;-78
2022/10/20 15:51:29;;;;;;;30.23;15.43;;;;;;;11.64;85.69;100176.84;10413093;28;20052;-80
2022/10/20 15:56:32;;;;;;;25.42;17.20;;;;;;;11.39;85.89;100155.81;10410622;28;20055;-80
2022/10/20 16:01:36;;;;;;;30.20;19.58;;;;;;;11.34;86.20;100131.16;10415294;28;20068;-79
2022/10/20 16:06:41;;;;;;;29.70;20.25;;;;;;;11.34;86.68;100134.69;10418705;28;20049;-81
2022/10/20 16:11:43;;;;;;;30.23;21.15;;;;;;;11.10;86.79;100116.16;10393766;28;20045;-78
2022/10/20 16:16:46;;;;;;;29.33;20.50;;;;;;;11.19;86.60;100139.59;10396664;28;20053;-80
2022/10/20 16:21:51;;;;;;;31.27;21.98;;;;;;;11.22;86.53;100138.47;10415448;28;20068;-78
2022/10/20 16:26:53;;;;;;;26.63;18.48;;;;;;;11.04;86.83;100165.09;10407870;28;20048;-81
2022/10/20 16:31:57;;;;;;;29.00;18.15;;;;;;;11.10;87.29;100169.06;10407274;28;20049;-81
2022/10/20 16:37:02;;;;;;;33.70;20.92;;;;;;;10.90;88.17;100134.03;10413670;28;20057;-77
2022/10/20 16:42:05;;;;;;;31.08;22.20;;;;;;;10.71;89.24;100109.72;10426480;28;20052;-79
2022/10/20 16:47:09;;;;;;;36.40;21.90;;;;;;;10.89;89.10;100128.78;10438633;28;20128;-81
2022/10/20 16:52:13;;;;;;;37.63;22.80;;;;;;;10.85;89.47;100138.94;10417316;28;20068;-80
2022/10/20 16:57:16;;;;;;;36.95;24.60;;;;;;;10.84;89.36;100132.72;10400034;28;20549;-79
2022/10/20 17:02:19;;;;;;;34.88;24.10;;;;;;;10.82;89.74;100123.94;10400189;28;20048;-80
2022/10/20 17:07:23;;;;;;;36.70;24.27;;;;;;;10.61;90.52;100112.34;10413023;28;20092;-79
2022/10/20 17:12:26;;;;;;;43.17;25.80;;;;;;;10.79;90.15;100120.66;10418895;28;20052;-82
2022/10/20 17:17:29;;;;;;;;;;;;;;;10.73;89.71;100105.09;10418474;28;20147;-78
2022/10/20 17:22:33;;;;;;;47.75;27.92;;;;;;;10.78;90.11;100110.91;10423784;28;20055;-77
2022/10/20 17:27:37;;;;;;;41.22;26.52;;;;;;;10.95;89.43;100104.06;10413202;28;20043;-80
2022/10/20 17:32:41;;;;;;;39.47;26.15;;;;;;;10.84;90.01;100089.72;10415813;28;20479;-81
2022/10/20 17:37:46;;;;;;;39.03;26.00;;;;;;;10.65;90.26;100084.25;10401341;28;20068;-75
2022/10/20 17:42:48;;;;;;;38.85;26.52;;;;;;;10.86;89.46;100104.84;10403585;28;20506;-81
2022/10/20 17:47:52;;;;;;;36.58;24.33;;;;;;;10.99;89.58;100102.81;10411244;28;20124;-80
2022/10/20 17:52:56;;;;;;;40.25;24.45;;;;;;;10.98;89.55;100093.06;10414664;28;20116;-80
2022/10/20 17:57:59;;;;;;;38.65;24.67;;;;;;;11.02;89.25;100087.25;10430952;28;20053;-81
2022/10/20 18:03:07;;;;;;;39.22;25.13;;;;;;;10.89;89.19;100083.09;10425940;28;20416;-80
2022/10/20 18:08:11;;;;;;;37.30;24.45;;;;;;;11.04;88.79;100095.19;10428427;28;20108;-81
2022/10/20 18:13:14;;;;;;;35.17;23.05;;;;;;;11.05;88.95;100096.88;10426806;28;20068;-80
2022/10/20 18:18:17;;;;;;;35.05;22.98;;;;;;;11.13;88.60;100090.88;10425378;28;20053;-77
2022/10/20 18:23:21;;;;;;;34.72;22.20;;;;;;;11.08;88.39;100088.59;10428540;28;20723;-81
2022/10/20 18:28:24;;;;;;;33.90;22.42;;;;;;;11.03;88.62;100077.38;10421664;28;20113;-82
2022/10/20 18:33:27;;;;;;;30.88;22.30;;;;;;;11.02;88.33;100086.41;10433840;28;20059;-80
2022/10/20 18:38:31;;;;;;;;;;;;;;;11.05;88.11;100088.81;10428640;28;20189;-80
2022/10/20 18:43:34;;;;;;;37.40;22.90;;;;;;;10.98;88.32;100085.00;10428729;28;20390;-79
2022/10/20 18:48:39;;;;;;;36.17;23.27;;;;;;;10.90;88.52;100091.03;10426183;28;20083;-79
2022/10/20 18:53:44;;;;;;;40.38;26.90;;;;;;;10.93;88.33;100098.81;10429520;28;20059;-78
2022/10/20 18:58:49;;;;;;;38.15;25.02;;;;;;;10.93;88.12;100092.59;10438345;28;20104;-81
2022/10/20 19:03:54;;;;;;;35.70;23.40;;;;;;;10.86;88.02;100088.72;10434572;28;20052;-81
2022/10/20 19:09:00;;;;;;;36.92;24.13;;;;;;;10.91;87.61;100083.81;10436984;28;20179;-81
2022/10/20 19:14:04;;;;;;;36.15;22.50;;;;;;;10.86;87.71;100080.69;10439355;28;20521;-79
2022/10/20 19:19:08;;;;;;;33.50;23.50;;;;;;;10.71;87.78;100083.72;10442681;28;20072;-82
2022/10/20 19:24:16;;;;;;;34.92;24.85;;;;;;;10.81;87.53;100075.72;10441547;28;20064;-81
2022/10/20 19:29:20;;;;;;;37.92;24.17;;;;;;;10.66;87.70;100075.19;10438382;28;20065;-80
2022/10/20 19:34:26;;;;;;;35.80;23.67;;;;;;;10.65;87.85;100080.72;10432691;28;20056;-80
2022/10/20 19:39:33;;;;;;;35.08;24.08;;;;;;;10.74;87.83;100066.47;10427110;28;20069;-78
2022/10/20 19:44:36;;;;;;;36.40;23.55;;;;;;;10.69;87.59;100058.81;10420033;28;20041;-81
2022/10/20 19:49:39;;;;;;;38.53;25.20;;;;;;;10.62;87.26;100052.28;10415790;28;20599;-78
2022/10/20 19:54:44;;;;;;;39.35;25.35;;;;;;;10.50;87.59;100056.84;10417502;28;21239;-78
2022/10/20 19:59:46;;;;;;;37.92;25.15;;;;;;;10.59;87.41;100041.81;10435635;28;20112;-79
2022/10/20 20:04:49;;;;;;;;;;;;;;;10.60;87.48;100030.06;10453271;28;20037;-78
2022/10/20 20:09:53;;;;;;;38.90;25.83;;;;;;;10.57;87.48;100027.66;10446022;28;20542;-78
2022/10/20 20:14:56;;;;;;;45.15;27.00;;;;;;;10.50;87.61;100019.25;10430521;28;20110;-79
2022/10/20 20:19:59;;;;;;;48.28;27.83;;;;;;;10.48;87.94;100023.94;10427797;28;20053;-80
2022/10/20 20:25:03;;;;;;;;;;;;;;;10.50;87.59;100011.22;10430037;28;20116;-81
2022/10/20 20:30:07;;;;;;;47.30;28.33;;;;;;;10.49;87.58;100011.34;10448607;28;19924;-79
2022/10/20 20:35:09;;;;;;;46.92;28.48;;;;;;;10.47;87.73;100003.41;10434885;28;20116;-80
2022/10/20 20:40:14;;;;;;;;;;;;;;;10.50;87.95;100007.69;10434476;28;20057;-77
2022/10/20 20:45:17;;;;;;;55.65;30.95;;;;;;;10.44;88.19;100016.28;10439006;28;19960;-79
2022/10/20 20:50:19;;;;;;;47.55;29.80;;;;;;;10.41;87.91;100019.22;10432007;28;20049;-79
2022/10/20 20:55:23;;;;;;;;;;;;;;;10.46;87.98;100007.09;10433038;28;20059;-81
2022/10/20 21:00:26;;;;;;;46.38;28.27;;;;;;;10.44;88.07;100013.59;10426920;28;20232;-81
2022/10/20 21:05:29;;;;;;;51.13;29.27;;;;;;;10.39;88.20;100003.22;10424554;28;20521;-81
2022/10/20 21:10:34;;;;;;;49.65;28.45;;;;;;;10.43;88.21;100002.00;10430177;28;20056;-78
2022/10/20 21:15:37;;;;;;;49.10;29.73;;;;;;;10.45;87.70;100013.47;10452484;28;20041;-79
2022/10/20 21:20:40;;;;;;;45.55;27.85;;;;;;;10.35;88.53;99999.97;10473026;28;20045;-79
2022/10/20 21:25:49;;;;;;;52.75;30.30;;;;;;;10.43;88.44;99993.09;10472718;28;20091;-80
2022/10/20 21:30:52;;;;;;;53.72;30.45;;;;;;;10.37;88.71;99991.78;10473396;28;20056;-78
2022/10/20 21:36:00;;;;;;;56.20;31.90;;;;;;;10.44;88.67;100000.16;10471632;28;20045;-78
2022/10/20 21:41:06;;;;;;;53.38;30.77;;;;;;;10.45;88.16;99997.34;10497877;23;20034;-79
2022/10/20 21:46:11;;;;;;;57.60;31.65;;;;;;;10.44;88.88;100002.84;10447579;28;20108;-79
2022/10/20 21:51:16;;;;;;;55.72;32.63;;;;;;;10.37;89.25;99995.31;10422844;28;20068;-79
2022/10/20 21:56:20;;;;;;;50.63;30.20;;;;;;;10.55;88.87;100013.50;10422489;28;20129;-78
2022/10/20 22:01:24;;;;;;;48.65;30.27;;;;;;;10.53;88.59;100016.34;10430329;28;20080;-79
2022/10/20 22:06:28;;;;;;;51.05;29.15;;;;;;;10.38;88.81;100013.13;10443172;28;20037;-79
2022/10/20 22:11:34;;;;;;;54.70;31.02;;;;;;;10.45;88.74;99993.78;10447593;28;20037;-79
2022/10/20 22:16:39;;;;;;;53.40;30.23;;;;;;;10.48;88.58;99990.88;10422082;28;20093;-79
2022/10/20 22:21:44;;;;;;;63.97;33.67;;;;;;;10.42;88.68;99991.38;10419250;28;20050;-79
2022/10/20 22:26:50;;;;;;;58.42;32.00;;;;;;;10.51;88.61;99995.97;10433516;28;20034;-80
2022/10/20 22:31:53;;;;;;;68.90;33.72;;;;;;;10.46;89.09;99999.03;10471726;28;20048;-77
2022/10/20 22:36:56;;;;;;;;;;;;;;;10.65;89.05;100016.25;10482940;28;20488;-78
2022/10/20 22:42:00;;;;;;;50.55;31.02;;;;;;;10.64;88.80;100006.47;10456894;28;19932;-78
2022/10/20 22:47:03;;;;;;;56.50;29.02;;;;;;;10.67;88.75;99999.03;10449078;28;20681;-78
2022/10/20 22:52:06;;;;;;;58.38;29.73;;;;;;;10.59;89.50;99991.63;10442490;28;20577;-78
2022/10/20 22:57:10;;;;;;;;;;;;;;;10.60;89.13;99993.31;10444256;28;20079;-78
2022/10/20 23:02:12;;;;;;;63.58;33.25;;;;;;;10.71;89.02;99989.69;10436087;28;19921;-80
2022/10/20 23:07:15;;;;;;;68.68;33.17;;;;;;;10.64;89.24;99995.72;10452582;28;20049;-80
2022/10/20 23:12:19;;;;;;;74.80;34.17;;;;;;;10.66;89.40;99986.56;10441421;28;20072;-79
2022/10/20 23:17:23;;;;;;;64.47;31.45;;;;;;;10.73;89.64;99962.72;10441133;28;20437;-79
2022/10/20 23:22:26;;;;;;;64.85;32.42;;;;;;;10.81;89.32;99961.03;10426933;28;20049;-79
2022/10/20 23:27:32;;;;;;;57.70;30.90;;;;;;;10.94;89.90;99974.25;10429692;28;20041;-79